This is the latest recevied weather packets stored in our database for station/object KC1TEM-13. If no packets are shown the sender has not sent any weather packets the latest 10 day(s).
| Time | Temp. | Humidity | Pressure | Rain* | Wind** | Luminosity | Snow |
|---|---|---|---|---|---|---|---|
| 1777831973 | 10.56° C | 50% | 1006.2 hPa | 0 mm | - | 231 W/m² | - |
| 1777827128 | 9.44° C | 58% | 1006.1 hPa | 0 mm | - | 280 W/m² | - |
| 1777826217 | 8.89° C | 61% | 1006.2 hPa | 0 mm | - | 164 W/m² | - |
| 1777825915 | 8.89° C | 63% | 1006.2 hPa | 0 mm | - | 128 W/m² | - |
| 1777825310 | 8.89° C | 64% | 1006.1 hPa | 0 mm | - | 82 W/m² | - |
| 1777825007 | 8.89° C | 65% | 1006.1 hPa | 0 mm | - | 101 W/m² | - |
| 1777824400 | 8.89° C | 69% | 1006.1 hPa | 0 mm | - | 194 W/m² | - |
| 1777824096 | 8.89° C | 69% | 1006.2 hPa | 0 mm | - | 223 W/m² | - |
| 1777823792 | 8.33° C | 69% | 1006.1 hPa | 0 mm | - | 211 W/m² | - |
| 1777822885 | 8.33° C | 69% | 1006.3 hPa | 0 mm | - | 127 W/m² | - |
| 1777822582 | 8.89° C | 70% | 1006.1 hPa | 0 mm | - | 134 W/m² | - |
| 1777821977 | 8.89° C | 76% | 1006.2 hPa | 0 mm | - | 312 W/m² | - |
| 1777821675 | 8.33° C | 79% | 1006.2 hPa | 0 mm | - | 370 W/m² | - |
| 1777821069 | 7.78° C | 78% | 1006.4 hPa | 0 mm | - | 152 W/m² | - |
| 1777820766 | 7.78° C | 77% | 1006.2 hPa | 0 mm | - | 65 W/m² | - |
| 1777820159 | 7.78° C | 75% | 1006.2 hPa | 0 mm | - | 122 W/m² | - |
| 1777818948 | 7.78° C | 81% | 1006.3 hPa | 0 mm | - | 170 W/m² | - |
| 1777818038 | 8.33° C | 76% | 1006.4 hPa | 0 mm | - | 193 W/m² | - |
| 1777817735 | 8.33° C | 77% | 1006.1 hPa | 0 mm | - | 159 W/m² | - |
| 1777817432 | 7.78° C | 77% | 1006.3 hPa | 0 mm | - | 190 W/m² | - |
| 1777817128 | 7.78° C | 79% | 1006.3 hPa | 0 mm | - | 93 W/m² | - |
| 1777816826 | 7.78° C | 78% | 1006.3 hPa | 0 mm | - | 56 W/m² | - |
| 1777806533 | 5.56° C | 93% | 1007.5 hPa | 0 mm | - | 25 W/m² | - |
| 1777804111 | 5.56° C | 93% | 1007.4 hPa | 0 mm | - | 12 W/m² | - |
| 1777803503 | 5.56° C | 93% | 1007.4 hPa | 0 mm | - | 8 W/m² | - |
* Rain latest hour (hover to see other rain measurements)
** Current wind speed in m/s (hover to see current wind gust speed)